sensor_id;sensor_type;location;lat;lon;timestamp;temperature;humidity
23271;DHT22;11804;51.118;17.058;2022-09-09T00:00:31;17.50;99.90
23271;DHT22;11804;51.118;17.058;2022-09-09T00:03:02;17.40;99.90
23271;DHT22;11804;51.118;17.058;2022-09-09T00:05:38;17.50;99.90
23271;DHT22;11804;51.118;17.058;2022-09-09T00:08:06;17.50;99.90
23271;DHT22;11804;51.118;17.058;2022-09-09T00:10:41;17.40;99.90
23271;DHT22;11804;51.118;17.058;2022-09-09T00:13:30;17.40;99.90
23271;DHT22;11804;51.118;17.058;2022-09-09T00:18:59;17.40;99.90
23271;DHT22;11804;51.118;17.058;2022-09-09T00:21:32;17.30;99.90
23271;DHT22;11804;51.118;17.058;2022-09-09T00:23:55;17.30;99.90
23271;DHT22;11804;51.118;17.058;2022-09-09T00:26:48;17.30;99.90
23271;DHT22;11804;51.118;17.058;2022-09-09T00:31:57;17.30;99.90
23271;DHT22;11804;51.118;17.058;2022-09-09T00:34:24;17.30;99.90
23271;DHT22;11804;51.118;17.058;2022-09-09T00:36:54;17.30;99.90
23271;DHT22;11804;51.118;17.058;2022-09-09T00:39:48;17.30;99.90
23271;DHT22;11804;51.118;17.058;2022-09-09T00:42:20;17.20;99.90
23271;DHT22;11804;51.118;17.058;2022-09-09T00:45:00;17.10;99.90
23271;DHT22;11804;51.118;17.058;2022-09-09T00:47:51;17.10;99.90
23271;DHT22;11804;51.118;17.058;2022-09-09T00:50:39;17.10;99.90
23271;DHT22;11804;51.118;17.058;2022-09-09T00:55:52;17.00;99.90
23271;DHT22;11804;51.118;17.058;2022-09-09T00:58:18;17.00;99.90
23271;DHT22;11804;51.118;17.058;2022-09-09T01:00:50;17.10;99.90
23271;DHT22;11804;51.118;17.058;2022-09-09T01:03:52;17.00;99.90
23271;DHT22;11804;51.118;17.058;2022-09-09T01:09:18;17.00;99.90
23271;DHT22;11804;51.118;17.058;2022-09-09T01:12:15;17.00;99.90
23271;DHT22;11804;51.118;17.058;2022-09-09T01:14:45;16.90;99.90
23271;DHT22;11804;51.118;17.058;2022-09-09T01:17:19;17.00;99.90
23271;DHT22;11804;51.118;17.058;2022-09-09T01:22:43;16.90;99.90
23271;DHT22;11804;51.118;17.058;2022-09-09T01:25:18;16.90;99.90
23271;DHT22;11804;51.118;17.058;2022-09-09T01:27:44;16.80;99.90
23271;DHT22;11804;51.118;17.058;2022-09-09T01:30:16;16.80;99.90
23271;DHT22;11804;51.118;17.058;2022-09-09T01:32:46;16.80;99.90
23271;DHT22;11804;51.118;17.058;2022-09-09T01:38:11;16.80;99.90
23271;DHT22;11804;51.118;17.058;2022-09-09T01:40:39;16.80;99.90
23271;DHT22;11804;51.118;17.058;2022-09-09T01:43:07;16.80;99.90
23271;DHT22;11804;51.118;17.058;2022-09-09T01:45:34;16.80;99.90
23271;DHT22;11804;51.118;17.058;2022-09-09T01:48:03;16.70;99.90
23271;DHT22;11804;51.118;17.058;2022-09-09T01:50:31;16.70;99.90
23271;DHT22;11804;51.118;17.058;2022-09-09T01:53:00;16.70;99.90
23271;DHT22;11804;51.118;17.058;2022-09-09T01:55:31;16.70;99.90
23271;DHT22;11804;51.118;17.058;2022-09-09T02:01:02;16.60;99.90
23271;DHT22;11804;51.118;17.058;2022-09-09T02:03:33;16.50;99.90
23271;DHT22;11804;51.118;17.058;2022-09-09T02:06:21;16.50;99.90
23271;DHT22;11804;51.118;17.058;2022-09-09T02:08:52;16.50;99.90
23271;DHT22;11804;51.118;17.058;2022-09-09T02:11:25;16.40;99.90
23271;DHT22;11804;51.118;17.058;2022-09-09T02:14:08;16.40;99.90
23271;DHT22;11804;51.118;17.058;2022-09-09T02:16:44;16.40;99.90
23271;DHT22;11804;51.118;17.058;2022-09-09T02:19:25;16.40;99.90
23271;DHT22;11804;51.118;17.058;2022-09-09T02:21:56;16.40;99.90
23271;DHT22;11804;51.118;17.058;2022-09-09T02:24:25;16.40;99.90
23271;DHT22;11804;51.118;17.058;2022-09-09T02:26:55;16.40;99.90
23271;DHT22;11804;51.118;17.058;2022-09-09T02:29:27;16.30;99.90
23271;DHT22;11804;51.118;17.058;2022-09-09T02:31:56;16.30;99.90
23271;DHT22;11804;51.118;17.058;2022-09-09T02:34:25;16.30;99.90
23271;DHT22;11804;51.118;17.058;2022-09-09T02:36:55;16.30;99.90
23271;DHT22;11804;51.118;17.058;2022-09-09T02:39:24;16.20;99.90
23271;DHT22;11804;51.118;17.058;2022-09-09T02:41:52;16.20;99.90
23271;DHT22;11804;51.118;17.058;2022-09-09T02:44:19;16.20;99.90
23271;DHT22;11804;51.118;17.058;2022-09-09T02:47:09;16.20;99.90
23271;DHT22;11804;51.118;17.058;2022-09-09T02:49:43;16.10;99.90
23271;DHT22;11804;51.118;17.058;2022-09-09T02:52:13;16.10;99.90
23271;DHT22;11804;51.118;17.058;2022-09-09T02:54:42;16.10;99.90
23271;DHT22;11804;51.118;17.058;2022-09-09T02:57:19;16.10;99.90
23271;DHT22;11804;51.118;17.058;2022-09-09T02:59:47;16.00;99.90
23271;DHT22;11804;51.118;17.058;2022-09-09T03:02:15;16.00;99.90
23271;DHT22;11804;51.118;17.058;2022-09-09T03:04:43;15.90;99.90
23271;DHT22;11804;51.118;17.058;2022-09-09T03:07:11;15.90;99.90
23271;DHT22;11804;51.118;17.058;2022-09-09T03:09:40;15.90;99.90
23271;DHT22;11804;51.118;17.058;2022-09-09T03:12:09;15.80;99.90
23271;DHT22;11804;51.118;17.058;2022-09-09T03:14:39;15.70;99.90
23271;DHT22;11804;51.118;17.058;2022-09-09T03:17:08;15.70;99.90
23271;DHT22;11804;51.118;17.058;2022-09-09T03:19:35;15.70;99.90
23271;DHT22;11804;51.118;17.058;2022-09-09T03:22:04;15.60;99.90
23271;DHT22;11804;51.118;17.058;2022-09-09T03:24:31;15.60;99.90
23271;DHT22;11804;51.118;17.058;2022-09-09T03:26:59;15.70;99.90
23271;DHT22;11804;51.118;17.058;2022-09-09T03:29:27;15.70;99.90
23271;DHT22;11804;51.118;17.058;2022-09-09T03:31:54;15.70;99.90
23271;DHT22;11804;51.118;17.058;2022-09-09T03:34:23;15.70;99.90
23271;DHT22;11804;51.118;17.058;2022-09-09T03:36:52;15.70;99.90
23271;DHT22;11804;51.118;17.058;2022-09-09T03:39:20;15.70;99.90
23271;DHT22;11804;51.118;17.058;2022-09-09T03:41:47;15.70;99.90
23271;DHT22;11804;51.118;17.058;2022-09-09T03:44:15;15.70;99.90
23271;DHT22;11804;51.118;17.058;2022-09-09T03:46:42;15.70;99.90
23271;DHT22;11804;51.118;17.058;2022-09-09T03:49:10;15.70;99.90
23271;DHT22;11804;51.118;17.058;2022-09-09T03:51:37;15.70;99.90
23271;DHT22;11804;51.118;17.058;2022-09-09T03:54:05;15.60;99.90
23271;DHT22;11804;51.118;17.058;2022-09-09T03:56:35;15.60;99.90
23271;DHT22;11804;51.118;17.058;2022-09-09T03:59:03;15.60;99.90
23271;DHT22;11804;51.118;17.058;2022-09-09T04:01:31;15.50;99.90
23271;DHT22;11804;51.118;17.058;2022-09-09T04:03:58;15.50;99.90
23271;DHT22;11804;51.118;17.058;2022-09-09T04:06:28;15.50;99.90
23271;DHT22;11804;51.118;17.058;2022-09-09T04:08:56;15.50;99.90
23271;DHT22;11804;51.118;17.058;2022-09-09T04:11:23;15.50;99.90
23271;DHT22;11804;51.118;17.058;2022-09-09T04:13:51;15.50;99.90
23271;DHT22;11804;51.118;17.058;2022-09-09T04:16:18;15.50;99.90
23271;DHT22;11804;51.118;17.058;2022-09-09T04:18:46;15.40;99.90
23271;DHT22;11804;51.118;17.058;2022-09-09T04:21:15;15.40;99.90
23271;DHT22;11804;51.118;17.058;2022-09-09T04:23:46;15.40;99.90
23271;DHT22;11804;51.118;17.058;2022-09-09T04:26:13;15.30;99.90
23271;DHT22;11804;51.118;17.058;2022-09-09T04:28:41;15.30;99.90
23271;DHT22;11804;51.118;17.058;2022-09-09T04:31:11;15.30;99.90
23271;DHT22;11804;51.118;17.058;2022-09-09T04:33:38;15.30;99.90
23271;DHT22;11804;51.118;17.058;2022-09-09T04:36:07;15.40;99.90
23271;DHT22;11804;51.118;17.058;2022-09-09T04:38:35;15.40;99.90
23271;DHT22;11804;51.118;17.058;2022-09-09T04:41:04;15.30;99.90
23271;DHT22;11804;51.118;17.058;2022-09-09T04:43:32;15.40;99.90
23271;DHT22;11804;51.118;17.058;2022-09-09T04:46:00;15.40;99.90
23271;DHT22;11804;51.118;17.058;2022-09-09T04:48:30;15.40;99.90
23271;DHT22;11804;51.118;17.058;2022-09-09T04:51:03;15.40;99.90
23271;DHT22;11804;51.118;17.058;2022-09-09T04:53:32;15.50;99.90
23271;DHT22;11804;51.118;17.058;2022-09-09T04:56:12;15.50;99.90
23271;DHT22;11804;51.118;17.058;2022-09-09T04:58:41;15.50;99.90
23271;DHT22;11804;51.118;17.058;2022-09-09T05:01:19;15.50;99.90
23271;DHT22;11804;51.118;17.058;2022-09-09T05:03:48;15.50;99.90
23271;DHT22;11804;51.118;17.058;2022-09-09T05:06:18;15.50;99.90
23271;DHT22;11804;51.118;17.058;2022-09-09T05:08:47;15.50;99.90
23271;DHT22;11804;51.118;17.058;2022-09-09T05:11:22;15.40;99.90
23271;DHT22;11804;51.118;17.058;2022-09-09T05:13:53;15.30;99.90
23271;DHT22;11804;51.118;17.058;2022-09-09T05:16:22;15.30;99.90
23271;DHT22;11804;51.118;17.058;2022-09-09T05:18:49;15.30;99.90
23271;DHT22;11804;51.118;17.058;2022-09-09T05:21:21;15.30;99.90
23271;DHT22;11804;51.118;17.058;2022-09-09T05:23:50;15.40;99.90
23271;DHT22;11804;51.118;17.058;2022-09-09T05:26:19;15.50;99.90
23271;DHT22;11804;51.118;17.058;2022-09-09T05:28:49;15.60;99.90
23271;DHT22;11804;51.118;17.058;2022-09-09T05:31:18;16.10;99.90
23271;DHT22;11804;51.118;17.058;2022-09-09T05:33:47;17.30;99.90
23271;DHT22;11804;51.118;17.058;2022-09-09T05:36:18;18.90;99.90
23271;DHT22;11804;51.118;17.058;2022-09-09T05:38:47;20.30;99.90
23271;DHT22;11804;51.118;17.058;2022-09-09T05:41:17;21.60;99.90
23271;DHT22;11804;51.118;17.058;2022-09-09T05:43:46;22.40;99.90
23271;DHT22;11804;51.118;17.058;2022-09-09T05:46:20;23.00;99.90
23271;DHT22;11804;51.118;17.058;2022-09-09T05:48:50;23.40;99.40
23271;DHT22;11804;51.118;17.058;2022-09-09T05:51:20;23.30;98.40
23271;DHT22;11804;51.118;17.058;2022-09-09T05:53:51;23.20;99.00
23271;DHT22;11804;51.118;17.058;2022-09-09T05:56:23;23.60;98.10
23271;DHT22;11804;51.118;17.058;2022-09-09T05:58:56;24.10;97.20
23271;DHT22;11804;51.118;17.058;2022-09-09T06:01:30;24.40;95.80
23271;DHT22;11804;51.118;17.058;2022-09-09T06:03:58;24.60;93.70
23271;DHT22;11804;51.118;17.058;2022-09-09T06:06:31;25.50;91.20
23271;DHT22;11804;51.118;17.058;2022-09-09T06:08:57;25.60;90.90
23271;DHT22;11804;51.118;17.058;2022-09-09T06:11:29;25.70;88.30
23271;DHT22;11804;51.118;17.058;2022-09-09T06:14:04;25.30;88.00
23271;DHT22;11804;51.118;17.058;2022-09-09T06:16:32;25.10;85.70
23271;DHT22;11804;51.118;17.058;2022-09-09T06:19:01;25.00;85.20
23271;DHT22;11804;51.118;17.058;2022-09-09T06:21:34;25.10;84.30
23271;DHT22;11804;51.118;17.058;2022-09-09T06:24:06;25.20;83.50
23271;DHT22;11804;51.118;17.058;2022-09-09T06:26:38;25.30;82.80
23271;DHT22;11804;51.118;17.058;2022-09-09T06:29:08;25.30;82.20
23271;DHT22;11804;51.118;17.058;2022-09-09T06:31:37;25.50;81.60
23271;DHT22;11804;51.118;17.058;2022-09-09T06:34:07;25.80;80.80
23271;DHT22;11804;51.118;17.058;2022-09-09T06:36:37;26.50;75.90
23271;DHT22;11804;51.118;17.058;2022-09-09T06:39:06;26.70;73.20
23271;DHT22;11804;51.118;17.058;2022-09-09T06:41:36;26.70;73.00
23271;DHT22;11804;51.118;17.058;2022-09-09T06:44:03;27.00;72.40
23271;DHT22;11804;51.118;17.058;2022-09-09T06:46:32;27.50;70.30
23271;DHT22;11804;51.118;17.058;2022-09-09T06:49:00;27.30;69.10
23271;DHT22;11804;51.118;17.058;2022-09-09T06:51:31;26.80;69.80
23271;DHT22;11804;51.118;17.058;2022-09-09T06:54:01;26.00;70.90
23271;DHT22;11804;51.118;17.058;2022-09-09T06:56:34;25.30;75.10
23271;DHT22;11804;51.118;17.058;2022-09-09T06:59:04;25.00;77.80
23271;DHT22;11804;51.118;17.058;2022-09-09T07:01:39;25.20;76.60
23271;DHT22;11804;51.118;17.058;2022-09-09T07:04:05;25.70;76.00
23271;DHT22;11804;51.118;17.058;2022-09-09T07:06:40;27.00;73.90
23271;DHT22;11804;51.118;17.058;2022-09-09T07:09:12;27.50;69.10
23271;DHT22;11804;51.118;17.058;2022-09-09T07:11:42;27.40;68.20
23271;DHT22;11804;51.118;17.058;2022-09-09T07:14:10;26.90;69.20
23271;DHT22;11804;51.118;17.058;2022-09-09T07:16:41;27.10;68.50
23271;DHT22;11804;51.118;17.058;2022-09-09T07:19:09;27.70;67.10
23271;DHT22;11804;51.118;17.058;2022-09-09T07:21:38;28.10;65.80
23271;DHT22;11804;51.118;17.058;2022-09-09T07:24:07;28.50;64.50
23271;DHT22;11804;51.118;17.058;2022-09-09T07:26:37;28.80;62.90
23271;DHT22;11804;51.118;17.058;2022-09-09T07:29:07;29.40;61.40
23271;DHT22;11804;51.118;17.058;2022-09-09T07:31:38;31.30;57.80
23271;DHT22;11804;51.118;17.058;2022-09-09T07:34:08;31.60;54.30
23271;DHT22;11804;51.118;17.058;2022-09-09T07:36:37;32.30;50.60
23271;DHT22;11804;51.118;17.058;2022-09-09T07:39:13;30.80;53.20
23271;DHT22;11804;51.118;17.058;2022-09-09T07:41:47;30.70;54.20
23271;DHT22;11804;51.118;17.058;2022-09-09T07:44:17;30.00;55.40
23271;DHT22;11804;51.118;17.058;2022-09-09T07:46:46;29.60;56.90
23271;DHT22;11804;51.118;17.058;2022-09-09T07:49:15;30.00;56.20
23271;DHT22;11804;51.118;17.058;2022-09-09T07:51:46;30.30;54.80
23271;DHT22;11804;51.118;17.058;2022-09-09T07:54:17;30.20;54.60
23271;DHT22;11804;51.118;17.058;2022-09-09T07:56:51;29.90;55.00
23271;DHT22;11804;51.118;17.058;2022-09-09T07:59:19;29.80;56.10
23271;DHT22;11804;51.118;17.058;2022-09-09T08:01:49;30.10;54.40
23271;DHT22;11804;51.118;17.058;2022-09-09T08:04:20;29.10;56.40
23271;DHT22;11804;51.118;17.058;2022-09-09T08:06:53;28.30;58.10
23271;DHT22;11804;51.118;17.058;2022-09-09T08:09:21;27.80;59.70
23271;DHT22;11804;51.118;17.058;2022-09-09T08:11:53;28.10;59.10
23271;DHT22;11804;51.118;17.058;2022-09-09T08:14:22;27.60;58.30
23271;DHT22;11804;51.118;17.058;2022-09-09T08:16:50;27.40;59.50
23271;DHT22;11804;51.118;17.058;2022-09-09T08:19:19;27.80;58.80
23271;DHT22;11804;51.118;17.058;2022-09-09T08:21:47;28.60;58.00
23271;DHT22;11804;51.118;17.058;2022-09-09T08:24:15;29.10;55.80
23271;DHT22;11804;51.118;17.058;2022-09-09T08:26:45;30.20;52.50
23271;DHT22;11804;51.118;17.058;2022-09-09T08:29:13;29.60;53.70
23271;DHT22;11804;51.118;17.058;2022-09-09T08:31:47;29.60;52.60
23271;DHT22;11804;51.118;17.058;2022-09-09T08:34:13;28.90;54.80
23271;DHT22;11804;51.118;17.058;2022-09-09T08:36:43;28.60;56.60
23271;DHT22;11804;51.118;17.058;2022-09-09T08:39:16;28.40;55.70
23271;DHT22;11804;51.118;17.058;2022-09-09T08:44:44;28.20;56.50
23271;DHT22;11804;51.118;17.058;2022-09-09T08:50:30;28.80;53.80
23271;DHT22;11804;51.118;17.058;2022-09-09T08:55:48;27.80;56.00
23271;DHT22;11804;51.118;17.058;2022-09-09T08:58:19;27.70;55.60
23271;DHT22;11804;51.118;17.058;2022-09-09T09:09:35;27.20;57.40
23271;DHT22;11804;51.118;17.058;2022-09-09T09:12:02;28.10;57.00
23271;DHT22;11804;51.118;17.058;2022-09-09T09:14:31;29.30;55.00
23271;DHT22;11804;51.118;17.058;2022-09-09T09:17:04;29.20;53.80
23271;DHT22;11804;51.118;17.058;2022-09-09T09:19:36;28.20;55.30
23271;DHT22;11804;51.118;17.058;2022-09-09T09:22:17;28.10;55.80
23271;DHT22;11804;51.118;17.058;2022-09-09T09:30:19;26.20;64.60
23271;DHT22;11804;51.118;17.058;2022-09-09T09:35:26;26.00;66.20
23271;DHT22;11804;51.118;17.058;2022-09-09T09:37:54;27.70;58.80
23271;DHT22;11804;51.118;17.058;2022-09-09T09:40:23;28.80;56.60
23271;DHT22;11804;51.118;17.058;2022-09-09T09:42:56;29.70;53.30
23271;DHT22;11804;51.118;17.058;2022-09-09T09:45:31;29.90;54.00
23271;DHT22;11804;51.118;17.058;2022-09-09T09:48:06;29.80;55.00
23271;DHT22;11804;51.118;17.058;2022-09-09T09:50:35;30.20;53.30
23271;DHT22;11804;51.118;17.058;2022-09-09T09:53:05;30.30;54.10
23271;DHT22;11804;51.118;17.058;2022-09-09T09:55:35;30.10;53.90
23271;DHT22;11804;51.118;17.058;2022-09-09T09:58:05;29.70;52.90
23271;DHT22;11804;51.118;17.058;2022-09-09T10:00:33;29.40;53.70
23271;DHT22;11804;51.118;17.058;2022-09-09T10:03:02;28.60;54.80
23271;DHT22;11804;51.118;17.058;2022-09-09T10:05:31;29.30;53.20
23271;DHT22;11804;51.118;17.058;2022-09-09T10:13:26;28.50;57.50
23271;DHT22;11804;51.118;17.058;2022-09-09T10:16:01;28.70;57.50
23271;DHT22;11804;51.118;17.058;2022-09-09T10:18:40;29.50;56.00
23271;DHT22;11804;51.118;17.058;2022-09-09T10:21:20;29.20;54.80
23271;DHT22;11804;51.118;17.058;2022-09-09T10:37:46;28.10;57.10
23271;DHT22;11804;51.118;17.058;2022-09-09T10:43:04;30.00;53.70
23271;DHT22;11804;51.118;17.058;2022-09-09T10:45:37;30.00;53.40
23271;DHT22;11804;51.118;17.058;2022-09-09T10:50:55;30.20;51.10
23271;DHT22;11804;51.118;17.058;2022-09-09T10:53:28;29.20;54.30
23271;DHT22;11804;51.118;17.058;2022-09-09T10:56:11;28.80;54.40
23271;DHT22;11804;51.118;17.058;2022-09-09T10:58:53;28.80;52.10
23271;DHT22;11804;51.118;17.058;2022-09-09T11:01:24;28.40;55.60
23271;DHT22;11804;51.118;17.058;2022-09-09T11:03:57;27.80;57.90
23271;DHT22;11804;51.118;17.058;2022-09-09T11:06:29;27.60;59.10
23271;DHT22;11804;51.118;17.058;2022-09-09T11:08:57;27.40;57.80
23271;DHT22;11804;51.118;17.058;2022-09-09T11:11:34;27.20;56.80
23271;DHT22;11804;51.118;17.058;2022-09-09T11:14:15;26.70;57.30
23271;DHT22;11804;51.118;17.058;2022-09-09T11:16:55;25.70;58.30
23271;DHT22;11804;51.118;17.058;2022-09-09T11:21:57;25.50;59.30
23271;DHT22;11804;51.118;17.058;2022-09-09T11:24:44;25.80;60.10
23271;DHT22;11804;51.118;17.058;2022-09-09T11:30:02;26.00;60.40
23271;DHT22;11804;51.118;17.058;2022-09-09T11:41:00;26.00;57.50
23271;DHT22;11804;51.118;17.058;2022-09-09T11:43:31;25.90;57.60
23271;DHT22;11804;51.118;17.058;2022-09-09T11:46:01;25.50;58.70
23271;DHT22;11804;51.118;17.058;2022-09-09T11:48:40;25.70;60.50
23271;DHT22;11804;51.118;17.058;2022-09-09T11:54:00;25.40;60.10
23271;DHT22;11804;51.118;17.058;2022-09-09T11:59:29;24.90;59.50
23271;DHT22;11804;51.118;17.058;2022-09-09T12:01:43;24.70;61.80
23271;DHT22;11804;51.118;17.058;2022-09-09T12:04:27;25.00;60.80
23271;DHT22;11804;51.118;17.058;2022-09-09T12:06:54;25.30;60.80
23271;DHT22;11804;51.118;17.058;2022-09-09T12:12:06;25.60;60.20
23271;DHT22;11804;51.118;17.058;2022-09-09T12:17:17;25.30;60.60
23271;DHT22;11804;51.118;17.058;2022-09-09T12:19:45;24.80;62.30
23271;DHT22;11804;51.118;17.058;2022-09-09T12:22:24;25.10;62.90
23271;DHT22;11804;51.118;17.058;2022-09-09T12:24:56;25.40;63.50
23271;DHT22;11804;51.118;17.058;2022-09-09T12:27:28;25.40;59.70
23271;DHT22;11804;51.118;17.058;2022-09-09T12:32:29;25.90;60.80
23271;DHT22;11804;51.118;17.058;2022-09-09T12:34:59;25.80;60.30
23271;DHT22;11804;51.118;17.058;2022-09-09T12:37:30;25.90;58.70
23271;DHT22;11804;51.118;17.058;2022-09-09T12:40:14;26.10;59.10
23271;DHT22;11804;51.118;17.058;2022-09-09T12:42:39;26.20;59.00
23271;DHT22;11804;51.118;17.058;2022-09-09T12:45:29;26.20;59.30
23271;DHT22;11804;51.118;17.058;2022-09-09T12:47:43;26.00;59.50
23271;DHT22;11804;51.118;17.058;2022-09-09T12:50:21;25.80;58.70
23271;DHT22;11804;51.118;17.058;2022-09-09T12:52:53;25.70;59.60
23271;DHT22;11804;51.118;17.058;2022-09-09T12:55:24;25.70;59.60
23271;DHT22;11804;51.118;17.058;2022-09-09T12:57:52;25.80;60.90
23271;DHT22;11804;51.118;17.058;2022-09-09T13:00:23;26.00;60.30
23271;DHT22;11804;51.118;17.058;2022-09-09T13:02:56;26.00;58.90
23271;DHT22;11804;51.118;17.058;2022-09-09T13:05:36;26.00;58.20
23271;DHT22;11804;51.118;17.058;2022-09-09T13:08:08;26.10;55.80
23271;DHT22;11804;51.118;17.058;2022-09-09T13:10:46;26.10;56.90
23271;DHT22;11804;51.118;17.058;2022-09-09T13:13:24;25.80;59.60
23271;DHT22;11804;51.118;17.058;2022-09-09T13:15:57;25.80;58.70
23271;DHT22;11804;51.118;17.058;2022-09-09T13:18:28;25.70;59.10
23271;DHT22;11804;51.118;17.058;2022-09-09T13:20:56;25.90;55.80
23271;DHT22;11804;51.118;17.058;2022-09-09T13:23:27;26.00;54.80
23271;DHT22;11804;51.118;17.058;2022-09-09T13:26:00;25.90;55.50
23271;DHT22;11804;51.118;17.058;2022-09-09T13:28:30;26.00;58.10
23271;DHT22;11804;51.118;17.058;2022-09-09T13:30:59;26.20;56.70
23271;DHT22;11804;51.118;17.058;2022-09-09T13:33:34;26.10;57.00
23271;DHT22;11804;51.118;17.058;2022-09-09T13:36:10;26.10;57.40
23271;DHT22;11804;51.118;17.058;2022-09-09T13:38:53;26.00;58.50
23271;DHT22;11804;51.118;17.058;2022-09-09T13:41:32;25.90;59.60
23271;DHT22;11804;51.118;17.058;2022-09-09T13:43:59;25.70;58.40
23271;DHT22;11804;51.118;17.058;2022-09-09T13:46:39;25.70;57.30
23271;DHT22;11804;51.118;17.058;2022-09-09T13:51:45;25.70;58.40
23271;DHT22;11804;51.118;17.058;2022-09-09T13:54:15;25.70;59.40
23271;DHT22;11804;51.118;17.058;2022-09-09T13:56:44;25.20;57.10
23271;DHT22;11804;51.118;17.058;2022-09-09T13:59:17;24.70;59.80
23271;DHT22;11804;51.118;17.058;2022-09-09T14:01:46;24.50;62.60
23271;DHT22;11804;51.118;17.058;2022-09-09T14:04:19;24.20;63.20
23271;DHT22;11804;51.118;17.058;2022-09-09T14:06:50;24.30;64.20
23271;DHT22;11804;51.118;17.058;2022-09-09T14:09:18;24.50;63.80
23271;DHT22;11804;51.118;17.058;2022-09-09T14:11:46;24.60;64.40
23271;DHT22;11804;51.118;17.058;2022-09-09T14:14:14;24.60;64.00
23271;DHT22;11804;51.118;17.058;2022-09-09T14:16:41;24.10;65.10
23271;DHT22;11804;51.118;17.058;2022-09-09T14:19:09;23.80;66.30
23271;DHT22;11804;51.118;17.058;2022-09-09T14:21:37;23.60;65.60
23271;DHT22;11804;51.118;17.058;2022-09-09T14:24:05;23.50;67.10
23271;DHT22;11804;51.118;17.058;2022-09-09T14:26:32;23.60;68.00
23271;DHT22;11804;51.118;17.058;2022-09-09T14:29:00;23.70;68.00
23271;DHT22;11804;51.118;17.058;2022-09-09T14:31:29;23.60;67.60
23271;DHT22;11804;51.118;17.058;2022-09-09T14:33:57;23.60;69.20
23271;DHT22;11804;51.118;17.058;2022-09-09T14:36:25;23.60;68.80
23271;DHT22;11804;51.118;17.058;2022-09-09T14:38:52;23.60;67.80
23271;DHT22;11804;51.118;17.058;2022-09-09T14:41:20;23.50;69.00
23271;DHT22;11804;51.118;17.058;2022-09-09T14:43:49;23.60;69.20
23271;DHT22;11804;51.118;17.058;2022-09-09T14:46:18;23.70;69.20
23271;DHT22;11804;51.118;17.058;2022-09-09T14:48:47;23.70;70.20
23271;DHT22;11804;51.118;17.058;2022-09-09T14:51:20;23.70;70.90
23271;DHT22;11804;51.118;17.058;2022-09-09T14:53:54;23.70;70.00
23271;DHT22;11804;51.118;17.058;2022-09-09T14:56:25;23.70;71.20
23271;DHT22;11804;51.118;17.058;2022-09-09T14:58:55;23.80;69.50
23271;DHT22;11804;51.118;17.058;2022-09-09T15:01:23;23.90;70.60
23271;DHT22;11804;51.118;17.058;2022-09-09T15:03:58;23.70;70.40
23271;DHT22;11804;51.118;17.058;2022-09-09T15:06:28;23.80;70.10
23271;DHT22;11804;51.118;17.058;2022-09-09T15:08:56;23.70;69.80
23271;DHT22;11804;51.118;17.058;2022-09-09T15:11:28;23.80;69.60
23271;DHT22;11804;51.118;17.058;2022-09-09T15:13:56;23.80;69.70
23271;DHT22;11804;51.118;17.058;2022-09-09T15:16:27;23.70;69.90
23271;DHT22;11804;51.118;17.058;2022-09-09T15:18:57;23.50;70.70
23271;DHT22;11804;51.118;17.058;2022-09-09T15:21:31;23.30;72.10
23271;DHT22;11804;51.118;17.058;2022-09-09T15:23:59;23.30;72.30
23271;DHT22;11804;51.118;17.058;2022-09-09T15:26:27;23.10;73.30
23271;DHT22;11804;51.118;17.058;2022-09-09T15:28:56;23.10;74.20
23271;DHT22;11804;51.118;17.058;2022-09-09T15:31:28;23.10;75.50
23271;DHT22;11804;51.118;17.058;2022-09-09T15:33:59;23.10;76.50
23271;DHT22;11804;51.118;17.058;2022-09-09T15:36:35;23.00;76.40
23271;DHT22;11804;51.118;17.058;2022-09-09T15:39:05;22.90;77.10
23271;DHT22;11804;51.118;17.058;2022-09-09T15:41:33;22.90;77.80
23271;DHT22;11804;51.118;17.058;2022-09-09T15:44:01;23.00;78.20
23271;DHT22;11804;51.118;17.058;2022-09-09T15:49:17;22.90;79.40
23271;DHT22;11804;51.118;17.058;2022-09-09T15:51:47;23.00;80.20
23271;DHT22;11804;51.118;17.058;2022-09-09T15:54:17;23.00;80.00
23271;DHT22;11804;51.118;17.058;2022-09-09T15:56:49;23.10;80.00
23271;DHT22;11804;51.118;17.058;2022-09-09T15:59:16;23.00;80.50
23271;DHT22;11804;51.118;17.058;2022-09-09T16:01:44;22.90;81.10
23271;DHT22;11804;51.118;17.058;2022-09-09T16:04:12;22.80;82.20
23271;DHT22;11804;51.118;17.058;2022-09-09T16:06:40;22.70;83.30
23271;DHT22;11804;51.118;17.058;2022-09-09T16:09:08;22.70;83.10
23271;DHT22;11804;51.118;17.058;2022-09-09T16:11:37;22.70;84.20
23271;DHT22;11804;51.118;17.058;2022-09-09T16:14:06;22.70;83.70
23271;DHT22;11804;51.118;17.058;2022-09-09T16:16:34;22.70;84.20
23271;DHT22;11804;51.118;17.058;2022-09-09T16:19:07;22.60;84.40
23271;DHT22;11804;51.118;17.058;2022-09-09T16:21:38;22.50;85.80
23271;DHT22;11804;51.118;17.058;2022-09-09T16:24:08;22.50;86.60
23271;DHT22;11804;51.118;17.058;2022-09-09T16:26:38;22.40;87.50
23271;DHT22;11804;51.118;17.058;2022-09-09T16:29:06;22.40;88.40
23271;DHT22;11804;51.118;17.058;2022-09-09T16:31:35;22.40;89.40
23271;DHT22;11804;51.118;17.058;2022-09-09T16:34:03;22.30;89.60
23271;DHT22;11804;51.118;17.058;2022-09-09T16:36:33;22.20;89.60
23271;DHT22;11804;51.118;17.058;2022-09-09T16:39:07;22.30;90.20
23271;DHT22;11804;51.118;17.058;2022-09-09T16:41:36;22.30;90.30
23271;DHT22;11804;51.118;17.058;2022-09-09T16:44:06;22.20;90.60
23271;DHT22;11804;51.118;17.058;2022-09-09T16:46:37;22.30;90.70
23271;DHT22;11804;51.118;17.058;2022-09-09T16:49:07;22.20;90.70
23271;DHT22;11804;51.118;17.058;2022-09-09T16:51:38;22.00;91.10
23271;DHT22;11804;51.118;17.058;2022-09-09T16:54:07;22.00;90.80
23271;DHT22;11804;51.118;17.058;2022-09-09T16:56:38;22.00;91.70
23271;DHT22;11804;51.118;17.058;2022-09-09T16:59:13;21.90;91.70
23271;DHT22;11804;51.118;17.058;2022-09-09T17:01:42;21.90;91.90
23271;DHT22;11804;51.118;17.058;2022-09-09T17:04:13;22.00;91.60
23271;DHT22;11804;51.118;17.058;2022-09-09T17:06:45;21.90;91.80
23271;DHT22;11804;51.118;17.058;2022-09-09T17:09:13;21.90;92.40
23271;DHT22;11804;51.118;17.058;2022-09-09T17:11:41;21.90;93.80
23271;DHT22;11804;51.118;17.058;2022-09-09T17:14:11;21.80;93.40
23271;DHT22;11804;51.118;17.058;2022-09-09T17:16:39;21.80;93.50
23271;DHT22;11804;51.118;17.058;2022-09-09T17:19:07;21.70;94.00
23271;DHT22;11804;51.118;17.058;2022-09-09T17:21:36;21.70;94.00